Time;durP1;ratioP1;P1;durP2;ratioP2;P2;SDS_P1;SDS_P2;PMS_P1;PMS_P2;Temp;Humidity;BMP_temperature;BMP_pressure;BME280_temperature;BME280_humidity;BME280_pressure;Samples;Min_cycle;Max_cycle;Signal;HPM_P1;HPM_P2
2023/03/31 00:01:43;;;;;;;;;69.33;55.00;;;;;10.24;100.00;99163.19;6315015;20;3614845;-48
2023/03/31 00:04:12;;;;;;;;;71.00;56.50;;;;;10.35;100.00;99170.53;6280581;20;2864949;-49
2023/03/31 00:06:42;;;;;;;;;65.67;51.67;;;;;10.21;100.00;99178.59;6281733;20;3608671;-46
2023/03/31 00:09:23;;;;;;;;;61.67;47.67;;;;;10.26;100.00;99173.78;6313093;20;3618982;-47
2023/03/31 00:11:53;;;;;;;;;56.33;46.33;;;;;10.35;100.00;99177.69;6308582;20;2867079;-50
2023/03/31 00:14:22;;;;;;;;;50.00;43.50;;;;;10.43;100.00;99172.69;6313524;20;2846122;-48
2023/03/31 00:16:51;;;;;;;;;52.00;41.50;;;;;10.37;100.00;99146.25;6279229;20;2868071;-47
2023/03/31 00:19:20;;;;;;;;;41.50;36.50;;;;;10.40;100.00;99162.13;6282293;20;2837902;-52
2023/03/31 00:21:50;;;;;;;;;42.33;35.67;;;;;10.46;100.00;99167.09;6281225;20;3626298;-48
2023/03/31 00:24:19;;;;;;;;;36.00;34.00;;;;;10.52;100.00;99153.22;6315679;20;3598226;-50
2023/03/31 00:26:48;;;;;;;;;35.67;32.00;;;;;10.50;100.00;99155.16;6278540;20;3582546;-49
2023/03/31 00:29:17;;;;;;;;;37.67;32.00;;;;;10.48;100.00;99141.00;6307991;20;3596181;-49
2023/03/31 00:31:47;;;;;;;;;36.00;33.00;;;;;10.52;100.00;99134.44;6280473;20;2846235;-46
2023/03/31 00:34:15;;;;;;;;;38.00;33.67;;;;;10.48;100.00;99138.31;6314951;20;3598235;-51
2023/03/31 00:36:47;;;;;;;;;31.00;28.50;;;;;10.52;100.00;99142.50;6278105;20;2839918;-47
2023/03/31 00:39:18;;;;;;;;;38.33;34.67;;;;;10.48;100.00;99135.66;6280747;20;2864944;-49
2023/03/31 00:41:47;;;;;;;;;36.00;32.33;;;;;10.47;100.00;99134.75;6313178;20;3587767;-47
2023/03/31 00:44:24;;;;;;;;;32.00;30.50;;;;;10.44;100.00;99131.44;6277296;20;2847376;-51
2023/03/31 00:47:18;;;;;;;;;39.33;34.00;;;;;10.58;100.00;99127.78;6280527;20;2858764;-51
2023/03/31 00:49:55;;;;;;;;;33.33;30.33;;;;;10.51;100.00;99113.94;6312269;20;3584679;-47
2023/03/31 00:52:37;;;;;;;;;41.33;34.00;;;;;10.42;100.00;99122.63;6280880;20;3605481;-47
2023/03/31 00:55:14;;;;;;;;;29.67;29.33;;;;;10.40;100.00;99117.41;6313738;20;2851446;-45
2023/03/31 00:57:46;;;;;;;;;37.67;32.67;;;;;10.43;100.00;99111.81;6312790;20;3594098;-47
2023/03/31 01:00:17;;;;;;;;;35.67;31.67;;;;;10.48;100.00;99116.84;6280989;20;3597201;-49
2023/03/31 01:02:57;;;;;;;;;29.67;29.00;;;;;10.57;100.00;99110.81;6314577;20;3600332;-48
2023/03/31 01:05:46;;;;;;;;;35.00;32.00;;;;;10.47;100.00;99117.81;6275671;20;3607623;-48
2023/03/31 01:08:18;;;;;;;;;33.67;31.00;;;;;10.54;100.00;99108.38;6313521;20;3612809;-50
2023/03/31 01:10:56;;;;;;;;;28.33;26.33;;;;;10.61;100.00;99111.44;6277516;20;3597112;-48
2023/03/31 01:13:26;;;;;;;;;30.33;30.33;;;;;10.53;100.00;99106.63;6314710;20;3605497;-50
2023/03/31 01:15:55;;;;;;;;;33.33;32.33;;;;;10.57;100.00;99113.50;6279220;20;3596096;-49
2023/03/31 01:18:26;;;;;;;;;35.00;30.33;;;;;10.46;100.00;99113.41;6278591;20;3606531;-46
2023/03/31 01:22:04;;;;;;;;;41.00;33.00;;;;;10.45;100.00;99117.03;6313105;20;3626410;-47
2023/03/31 01:25:37;;;;;;;;;34.67;32.00;;;;;10.42;100.00;99111.91;6277080;20;3584638;-48
2023/03/31 01:28:37;;;;;;;;;33.33;30.67;;;;;10.45;100.00;99098.25;6276334;20;3606536;-51
2023/03/31 01:32:03;;;;;;;;;35.67;34.00;;;;;10.42;100.00;99104.69;6310980;20;3594481;-46
2023/03/31 01:35:10;;;;;;;;;33.00;30.50;;;;;10.44;100.00;99112.66;6275645;20;2851419;-47
2023/03/31 01:38:31;;;;;;;;;42.00;35.33;;;;;10.40;100.00;99108.44;6273088;20;2869086;-48
2023/03/31 01:41:46;;;;;;;;;35.00;29.67;;;;;10.28;100.00;99108.34;6314185;20;3610658;-47
2023/03/31 01:44:51;;;;;;;;;34.00;33.00;;;;;10.28;100.00;99113.72;6276817;20;2845142;-50
2023/03/31 01:47:43;;;;;;;;;35.00;31.67;;;;;10.20;100.00;99102.63;6277323;20;2859655;-48
2023/03/31 01:50:57;;;;;;;;;36.67;33.67;;;;;10.29;100.00;99107.41;6314937;20;3576251;-49
2023/03/31 01:54:07;;;;;;;;;34.67;33.67;;;;;10.27;100.00;99108.44;6275411;20;3607534;-49
2023/03/31 01:56:51;;;;;;;;;45.00;36.67;;;;;10.15;100.00;99101.25;6311643;20;3603405;-48
2023/03/31 01:59:58;;;;;;;;;39.67;34.00;;;;;10.14;100.00;99103.06;6277785;20;2859766;-46
2023/03/31 02:03:04;;;;;;;;;39.67;32.67;;;;;10.02;100.00;99098.53;6313185;20;3589859;-48
2023/03/31 02:05:43;;;;;;;;;39.00;35.00;;;;;10.13;100.00;99092.44;6275364;20;2858708;-48
2023/03/31 02:08:35;;;;;;;;;30.00;29.00;;;;;10.00;100.00;99089.72;6311274;20;3594039;-49
2023/03/31 02:11:04;;;;;;;;;36.33;32.33;;;;;10.07;100.00;99096.41;6274227;20;2856688;-48
2023/03/31 02:13:37;;;;;;;;;29.33;28.67;;;;;10.07;100.00;99085.69;6312061;20;3598173;-51
2023/03/31 02:16:17;;;;;;;;;32.00;29.67;;;;;10.02;100.00;99072.56;6276746;20;2853461;-50
2023/03/31 02:18:49;;;;;;;;;30.67;25.67;;;;;10.13;100.00;99089.75;6311302;20;3602421;-47
2023/03/31 02:21:21;;;;;;;;;34.67;29.33;;;;;10.11;100.00;99088.03;6274054;20;2867015;-51
2023/03/31 02:23:51;;;;;;;;;27.00;27.00;;;;;10.13;100.00;99077.19;6307650;20;2864822;-56
2023/03/31 02:26:29;;;;;;;;;38.67;32.00;;;;;10.16;100.00;99086.84;6275885;20;2857728;-52
2023/03/31 02:28:58;;;;;;;;;29.33;28.33;;;;;10.16;100.00;99086.84;6310518;20;3588833;-48
2023/03/31 02:31:50;;;;;;;;;38.00;33.00;;;;;10.18;100.00;99091.16;6272944;20;3608586;-52
2023/03/31 02:34:19;;;;;;;;;34.00;30.33;;;;;10.09;100.00;99089.13;6308301;20;3600284;-51
2023/03/31 02:36:50;;;;;;;;;31.00;29.67;;;;;10.06;100.00;99092.03;6278933;20;2855611;-46
2023/03/31 02:39:30;;;;;;;;;32.00;27.67;;;;;10.02;100.00;99088.66;6317970;20;3593036;-47
2023/03/31 02:42:05;;;;;;;;;30.67;27.33;;;;;9.98;100.00;99086.28;6278650;20;2856772;-47
2023/03/31 02:44:37;;;;;;;;;31.67;30.00;;;;;9.97;100.00;99084.59;6316277;20;3593014;-48
2023/03/31 02:47:14;;;;;;;;;31.33;25.67;;;;;9.91;100.00;99085.88;6282496;20;2856574;-48
2023/03/31 02:49:52;;;;;;;;;35.33;28.33;;;;;9.97;100.00;99085.44;6315405;20;3625443;-47
2023/03/31 02:52:58;;;;;;;;;32.00;31.00;;;;;9.82;100.00;99082.00;6282984;20;2854493;-47
2023/03/31 02:56:26;;;;;;;;;35.33;31.33;;;;;9.80;100.00;99093.81;6316268;20;3602494;-51
2023/03/31 02:59:24;;;;;;;;;36.33;32.00;;;;;9.74;100.00;99087.03;6283151;20;3606654;-50
2023/03/31 03:02:20;;;;;;;;;30.00;27.00;;;;;9.72;100.00;99088.94;6313044;20;3598173;-48
2023/03/31 03:05:38;;;;;;;;;35.33;30.33;;;;;9.75;100.00;99082.53;6282834;20;3612748;-49
2023/03/31 03:09:01;;;;;;;;;34.33;30.33;;;;;9.75;100.00;99083.38;6317190;20;3611809;-48
2023/03/31 03:11:52;;;;;;;;;33.67;26.67;;;;;9.63;100.00;99082.38;6283175;20;2864949;-50
2023/03/31 03:14:48;;;;;;;;;34.00;28.50;;;;;9.66;100.00;99081.31;6314567;20;2856559;-49
2023/03/31 03:17:34;;;;;;;;;31.00;24.33;;;;;9.74;100.00;99089.72;6285766;20;3568996;-48
2023/03/31 03:20:09;;;;;;;;;23.00;21.00;;;;;9.73;100.00;99090.66;6312934;20;2850301;-48
2023/03/31 03:22:40;;;;;;;;;30.50;25.00;;;;;9.77;100.00;99083.25;6281845;20;2848221;-50
2023/03/31 03:25:13;;;;;;;;;27.50;27.50;;;;;9.65;100.00;99093.84;6280755;20;2844062;-48
2023/03/31 03:27:40;;;;;;;;;29.50;25.50;;;;;9.57;100.00;99092.66;6281299;20;2501038;-46
2023/03/31 03:30:12;;;;;;;;;27.00;24.00;;;;;9.54;100.00;99084.84;6283282;20;3592220;-50
2023/03/31 03:32:42;;;;;;;;;34.33;29.67;;;;;9.57;100.00;99088.16;6316619;20;3612747;-48
2023/03/31 03:35:11;;;;;;;;;32.00;31.00;;;;;9.47;100.00;99080.84;6314479;20;3603487;-52
2023/03/31 03:37:41;;;;;;;;;35.00;32.33;;;;;9.53;100.00;99080.41;6282088;20;2864960;-45
2023/03/31 03:40:11;;;;;;;;;30.00;30.00;;;;;9.43;100.00;99075.69;6313620;20;2862857;-47
2023/03/31 03:42:40;;;;;;;;;31.67;28.67;;;;;9.30;100.00;99074.78;6316788;20;3595069;-48
2023/03/31 03:45:10;;;;;;;;;33.67;27.33;;;;;9.21;100.00;99076.22;6279540;20;2853510;-48
2023/03/31 03:47:39;;;;;;;;;31.00;30.00;;;;;9.25;100.00;99076.06;6316270;20;3595068;-49
2023/03/31 03:50:10;;;;;;;;;33.00;27.67;;;;;9.22;100.00;99077.13;6280887;20;3591924;-47
2023/03/31 03:52:43;;;;;;;;;32.33;29.67;;;;;9.12;100.00;99071.50;6314296;20;3605463;-51
2023/03/31 03:55:13;;;;;;;;;36.33;30.67;;;;;9.15;100.00;99070.44;6280741;20;3609643;-46
2023/03/31 03:57:41;;;;;;;;;29.00;23.50;;;;;9.11;100.00;99079.63;6312903;20;2850232;-46
2023/03/31 04:00:11;;;;;;;;;33.50;28.50;;;;;9.06;100.00;99073.69;6278831;20;2860830;-48
2023/03/31 04:02:41;;;;;;;;;30.67;27.00;;;;;9.09;100.00;99076.19;6281176;20;2852432;-47
2023/03/31 04:05:10;;;;;;;;;28.00;27.33;;;;;9.19;100.00;99074.66;6316660;20;3601292;-47
2023/03/31 04:07:39;;;;;;;;;29.67;28.00;;;;;9.13;100.00;99073.19;6281248;20;2858830;-45
2023/03/31 04:10:09;;;;;;;;;30.00;28.00;;;;;8.91;100.00;99086.28;6313429;20;2854565;-46
2023/03/31 04:12:38;;;;;;;;;29.33;27.00;;;;;8.75;100.00;99078.38;6282675;20;2844054;-51
2023/03/31 04:15:08;;;;;;;;;30.00;27.00;;;;;8.96;100.00;99073.47;6315518;20;3590943;-48
2023/03/31 04:17:38;;;;;;;;;38.33;31.67;;;;;9.01;100.00;99085.59;6277360;20;3618177;-47
2023/03/31 04:20:10;;;;;;;;;31.67;30.00;;;;;8.90;100.00;99087.22;6313728;20;3595086;-47
2023/03/31 04:22:39;;;;;;;;;32.67;28.67;;;;;8.90;100.00;99082.75;6312327;20;3598194;-48
2023/03/31 04:25:15;;;;;;;;;30.00;27.00;;;;;8.96;100.00;99079.66;6279946;20;2848276;-49
2023/03/31 04:27:53;;;;;;;;;30.00;29.00;;;;;9.01;100.00;99074.88;6313171;20;3584837;-47
2023/03/31 04:30:32;;;;;;;;;32.50;27.00;;;;;8.91;100.00;99079.09;6276854;20;2856558;-50
2023/03/31 04:33:05;;;;;;;;;28.00;27.50;;;;;8.93;100.00;99087.06;6281613;20;2852326;-47
2023/03/31 04:35:49;;;;;;;;;27.50;26.00;;;;;8.83;100.00;99078.75;6273962;20;2840914;-50
2023/03/31 04:38:26;;;;;;;;;28.50;25.50;;;;;8.86;100.00;99075.84;6281535;20;2842033;-48
2023/03/31 04:40:55;;;;;;;;;24.00;22.50;;;;;8.83;100.00;99069.84;6275807;20;2839897;-48
2023/03/31 04:43:24;;;;;;;;;26.50;26.00;;;;;8.85;100.00;99067.94;6281580;20;2844063;-49
2023/03/31 04:45:52;;;;;;;;;23.00;23.00;;;;;9.02;100.00;99067.69;6279056;20;2842164;-53
2023/03/31 04:48:20;;;;;;;;;27.50;23.50;;;;;9.02;100.00;99060.50;6278273;20;2500394;-50
2023/03/31 04:50:49;;;;;;;;;24.50;22.00;;;;;9.18;100.00;99070.22;6277905;20;2837818;-51
2023/03/31 04:53:17;;;;;;;;;25.50;21.00;;;;;9.13;100.00;99072.34;6275715;20;2480557;-50
2023/03/31 04:55:46;;;;;;;;;27.50;22.00;;;;;9.21;100.00;99060.16;6279930;20;2842007;-48
2023/03/31 04:58:15;;;;;;;;;23.00;18.00;;;;;9.33;100.00;99061.19;6276799;20;2835883;-46
2023/03/31 05:00:44;;;;;;;;;21.67;21.67;;;;;9.38;100.00;99061.75;6274850;20;3577376;-49
2023/03/31 05:03:13;;;;;;;;;22.50;19.00;;;;;9.53;100.00;99067.91;6278547;20;2839864;-51
2023/03/31 05:05:41;;;;;;;;;16.00;16.00;;;;;9.63;100.00;99060.06;6276539;20;2498336;-48
2023/03/31 05:08:10;;;;;;;;;23.50;19.00;;;;;9.74;100.00;99076.31;6282611;20;2837831;-49
2023/03/31 05:10:38;;;;;;;;;13.33;13.33;;;;;9.79;100.00;99066.09;6279680;20;3531596;-48
2023/03/31 05:13:09;;;;;;;;;20.50;19.00;;;;;10.09;100.00;99073.03;6310931;20;2835739;-53
2023/03/31 05:15:39;;;;;;;;;15.50;14.00;;;;;10.59;100.00;99060.56;6279312;20;2815291;-49
2023/03/31 05:18:08;;;;;;;;;17.00;16.00;;;;;10.44;100.00;99050.94;6281624;20;3560737;-47
2023/03/31 05:20:36;;;;;;;;;18.50;16.50;;;;;10.26;100.00;99075.38;6276616;20;2500290;-52
2023/03/31 05:23:05;;;;;;;;;17.00;17.00;;;;;10.28;100.00;99068.09;6276309;20;2824363;-46
2023/03/31 05:25:34;;;;;;;;;18.00;18.00;;;;;10.25;100.00;99072.81;6278472;20;2500302;-46
2023/03/31 05:28:03;;;;;;;;;20.33;18.33;;;;;10.47;100.00;99073.03;6280290;20;3562764;-47
2023/03/31 05:30:31;;;;;;;;;22.50;16.00;;;;;10.37;100.00;99060.38;6281939;20;2834635;-47
2023/03/31 05:32:59;;;;;;;;;22.00;21.00;;;;;11.49;99.44;99066.50;6279292;20;2492448;-49
2023/03/31 05:35:28;;;;;;;;;20.00;18.00;;;;;10.82;100.00;99066.09;6280369;20;3564890;-49
2023/03/31 05:37:57;;;;;;;;;19.00;17.67;;;;;10.72;100.00;99071.28;6281420;20;2835709;-48
2023/03/31 05:40:25;;;;;;;;;17.50;17.50;;;;;10.73;100.00;99073.84;6306316;20;2500291;-50
2023/03/31 05:42:53;;;;;;;;;20.00;17.50;;;;;11.05;100.00;99070.66;6277866;20;2496234;-49
2023/03/31 05:45:21;;;;;;;;;20.00;19.00;;;;;10.99;100.00;99073.78;6280265;20;2825253;-47
2023/03/31 05:47:50;;;;;;;;;21.00;21.00;;;;;11.63;98.73;99068.97;6278499;20;2844011;-50
2023/03/31 05:50:19;;;;;;;;;20.50;19.00;;;;;11.32;99.68;99069.56;6279940;20;2830564;-50
2023/03/31 05:52:47;;;;;;;;;20.50;19.00;;;;;11.55;99.14;99065.16;6274724;20;2485794;-47
2023/03/31 05:55:17;;;;;;;;;19.50;18.00;;;;;11.78;97.21;99075.03;6280412;20;2824353;-51
2023/03/31 05:57:46;;;;;;;;;24.67;24.67;;;;;12.43;95.41;99078.16;6278780;20;3592009;-45
2023/03/31 06:00:16;;;;;;;;;18.67;18.67;;;;;14.32;85.92;99078.69;6309608;20;3576348;-47
2023/03/31 06:02:44;;;;;;;;;26.00;20.50;;;;;12.83;89.66;99074.97;6272772;20;2500271;-46
2023/03/31 06:05:13;;;;;;;;;20.00;20.00;;;;;13.90;87.26;99076.00;6279618;20;2837861;-47
2023/03/31 06:07:42;;;;;;;;;22.00;19.50;;;;;13.07;89.97;99069.41;6280865;20;2837818;-49
2023/03/31 06:10:11;;;;;;;;;22.50;21.00;;;;;12.63;91.61;99071.16;6277552;20;2839860;-48
2023/03/31 06:12:40;;;;;;;;;23.00;21.00;;;;;13.13;90.90;99071.59;6280958;20;2822178;-49
2023/03/31 06:15:09;;;;;;;;;18.00;18.00;;;;;13.65;88.75;99067.28;6283160;20;2841979;-51
2023/03/31 06:17:37;;;;;;;;;20.00;16.00;;;;;16.46;77.74;99067.25;6284804;20;2828534;-52
2023/03/31 06:20:07;;;;;;;;;17.50;17.50;;;;;17.36;70.83;99073.00;6284250;20;2825243;-50
2023/03/31 06:22:54;;;;;;;;;15.00;14.00;;;;;19.92;59.14;99092.44;6285766;20;2812785;-61
2023/03/31 06:25:22;;;;;;;;;20.67;16.67;;;;;18.04;63.23;99090.66;6286176;20;3557544;-60
2023/03/31 06:27:50;;;;;;;;;20.00;16.00;;;;;20.32;57.21;99085.28;6284735;20;2500269;-60
2023/03/31 06:30:19;;;;;;;;;13.67;13.67;;;;;23.38;47.24;99101.22;6286610;20;2806643;-60
2023/03/31 06:32:47;;;;;;;;;14.00;14.00;;;;;22.75;47.38;99098.88;6315218;20;2492004;-61
2023/03/31 06:35:16;;;;;;;;;13.33;12.00;;;;;23.40;45.13;99101.88;6285231;20;3536737;-61
2023/03/31 06:37:43;;;;;;;;;13.50;13.00;;;;;23.75;45.44;99107.59;6282944;20;2492143;-61
2023/03/31 06:40:12;;;;;;;;;13.50;13.50;;;;;24.22;44.18;99109.75;6286083;20;2487778;-61
2023/03/31 06:42:40;;;;;;;;;14.00;12.00;;;;;24.05;43.21;99108.34;6283697;20;3533640;-61
2023/03/31 06:45:10;;;;;;;;;18.00;17.00;;;;;21.01;50.89;99093.00;6283881;20;2835865;-60
2023/03/31 06:47:40;;;;;;;;;12.00;12.00;;;;;19.47;54.50;99088.25;6283722;20;2494140;-60
2023/03/31 06:50:10;;;;;;;;;14.00;13.00;;;;;19.56;54.28;99088.28;6289740;20;2794059;-60
2023/03/31 06:52:39;;;;;;;;;14.00;14.00;;;;;19.81;55.37;99081.88;6315010;20;2489905;-60
2023/03/31 06:55:09;;;;;;;;;16.33;15.33;;;;;22.33;47.77;99091.25;6291219;20;3553430;-61
2023/03/31 06:57:37;;;;;;;;;13.00;11.33;;;;;23.90;43.55;99099.31;6320165;20;2793104;-61
2023/03/31 07:00:08;;;;;;;;;10.00;10.00;;;;;24.26;43.93;99093.78;6316574;20;2483626;-62
2023/03/31 07:02:36;;;;;;;;;14.33;13.33;;;;;24.18;43.84;99103.00;6318560;20;2483733;-61
2023/03/31 07:05:05;;;;;;;;;15.00;15.00;;;;;20.19;52.03;99093.13;6316833;20;2487819;-61
2023/03/31 07:07:34;;;;;;;;;14.67;14.67;;;;;23.42;46.24;99097.91;6283833;20;3533586;-61
2023/03/31 07:10:03;;;;;;;;;15.00;15.00;;;;;19.93;53.34;99083.28;6287670;20;3536736;-55
2023/03/31 07:12:33;;;;;;;;;14.67;14.67;;;;;20.92;51.05;99083.16;6283047;20;3529448;-57
2023/03/31 07:15:01;;;;;;;;;13.00;12.00;;;;;21.83;48.49;99081.72;6286014;20;3544031;-61
2023/03/31 07:17:30;;;;;;;;;13.33;13.33;;;;;23.80;44.85;99085.94;6283617;20;3523217;-61
2023/03/31 07:19:59;;;;;;;;;18.00;13.00;;;;;24.10;41.82;99092.16;6281480;20;3554456;-61
2023/03/31 07:22:27;;;;;;;;;13.33;12.33;;;;;23.94;43.04;99089.69;6283830;20;3526450;-62
2023/03/31 07:24:56;;;;;;;;;13.33;11.00;;;;;24.53;41.53;99094.88;6284723;20;2492078;-60
2023/03/31 07:27:25;;;;;;;;;15.33;15.33;;;;;20.11;51.30;99084.97;6316510;20;2487784;-60
2023/03/31 07:29:54;;;;;;;;;15.00;14.00;;;;;17.25;64.16;99065.94;6316104;20;2795081;-61
2023/03/31 07:32:22;;;;;;;;;14.00;14.00;;;;;17.60;65.82;99061.53;6285050;20;2489891;-60
2023/03/31 07:34:52;;;;;;;;;15.50;14.00;;;;;16.53;68.35;99061.25;6284417;20;2487851;-60
2023/03/31 07:37:21;;;;;;;;;14.33;14.00;;;;;16.26;70.66;99057.47;6286382;20;3520321;-60
2023/03/31 07:39:49;;;;;;;;;9.00;9.00;;;;;17.10;69.53;99062.03;6292476;20;2761748;-60
2023/03/31 07:42:17;;;;;;;;;13.00;13.00;;;;;16.16;73.30;99056.63;6282689;20;2500311;-63
2023/03/31 07:44:46;;;;;;;;;8.67;8.67;;;;;16.10;70.51;99057.22;6285673;20;2752471;-54
2023/03/31 07:47:15;;;;;;;;;16.00;14.00;;;;;16.79;69.22;99058.75;6314107;20;3527536;-50
2023/03/31 07:49:42;;;;;;;;;20.00;14.00;;;;;16.84;67.54;99070.00;6280604;20;2489858;-53
2023/03/31 07:52:11;;;;;;;;;17.00;17.00;;;;;16.90;68.18;99058.53;6284360;20;2826331;-49
2023/03/31 07:54:40;;;;;;;;;14.00;14.00;;;;;16.31;70.34;99076.84;6285677;20;3519056;-50
2023/03/31 07:57:09;;;;;;;;;16.50;16.50;;;;;15.84;71.62;99076.75;6282854;20;2827405;-47
2023/03/31 07:59:37;;;;;;;;;17.00;15.33;;;;;16.09;71.67;99066.31;6283991;20;3547568;-60
2023/03/31 08:02:06;;;;;;;;;16.00;14.00;;;;;16.75;70.70;99063.59;6282024;20;3537866;-51
2023/03/31 08:04:34;;;;;;;;;21.00;15.50;;;;;16.62;66.47;99054.94;6281616;20;2489849;-48
2023/03/31 08:07:04;;;;;;;;;17.00;15.50;;;;;16.79;65.47;99056.03;6283525;20;2823389;-52
2023/03/31 08:09:31;;;;;;;;;13.00;13.00;;;;;17.50;66.35;99056.19;6287919;20;2483652;-49
2023/03/31 08:11:59;;;;;;;;;13.00;13.00;;;;;17.18;66.20;99043.13;6285996;20;2808789;-50
2023/03/31 08:14:28;;;;;;;;;16.00;15.00;;;;;16.94;67.10;99037.44;6282644;20;3545094;-51
2023/03/31 08:17:09;;;;;;;;;14.33;12.67;;;;;17.43;65.33;99035.22;6314405;20;3530504;-50
2023/03/31 08:19:38;;;;;;;;;16.00;14.00;;;;;18.38;61.90;99028.25;6281251;20;3538833;-51
2023/03/31 08:22:07;;;;;;;;;17.33;14.33;;;;;17.14;64.69;99033.59;6282406;20;3542042;-48
2023/03/31 08:24:35;;;;;;;;;14.33;14.33;;;;;16.72;66.80;99020.53;6280554;20;3523169;-50
2023/03/31 08:27:04;;;;;;;;;13.33;13.33;;;;;17.30;67.11;99025.63;6283849;20;3531634;-48
2023/03/31 08:29:38;;;;;;;;;16.00;16.00;;;;;17.61;67.38;99027.94;6281846;20;2492086;-49
2023/03/31 08:32:07;;;;;;;;;16.00;15.00;;;;;17.22;64.77;99022.84;6283586;20;2809685;-52
2023/03/31 08:34:36;;;;;;;;;16.00;14.33;;;;;17.41;64.71;99024.56;6284671;20;3547130;-48
2023/03/31 08:37:04;;;;;;;;;13.50;13.50;;;;;17.80;66.35;99017.97;6283352;20;2488602;-53
2023/03/31 08:39:33;;;;;;;;;18.00;15.00;;;;;17.46;64.77;99010.53;6281353;20;2494090;-52
2023/03/31 08:42:39;;;;;;;;;15.50;15.50;;;;;17.32;66.04;99004.63;6283379;20;2819061;-49
2023/03/31 08:45:23;;;;;;;;;14.50;13.00;;;;;18.03;64.35;99000.16;6283167;20;2798272;-50
2023/03/31 08:48:26;;;;;;;;;14.00;14.00;;;;;17.52;62.96;98997.16;6279678;20;3521600;-51
2023/03/31 08:51:41;;;;;;;;;17.00;14.33;;;;;17.98;64.26;98994.34;6309630;20;3537888;-55
2023/03/31 08:54:41;;;;;;;;;13.00;13.00;;;;;18.51;61.88;98984.28;6277371;20;3510732;-49
2023/03/31 08:57:25;;;;;;;;;14.33;13.00;;;;;17.72;61.60;98981.56;6310345;20;3503435;-48
2023/03/31 08:59:57;;;;;;;;;12.00;12.00;;;;;17.97;59.58;98970.91;6280408;20;3530474;-50
2023/03/31 09:02:51;;;;;;;;;15.50;13.00;;;;;18.70;60.77;98975.06;6316472;20;2796118;-54
2023/03/31 09:05:27;;;;;;;;;16.20;10.80;;;;;17.93;60.25;98974.94;6306266;20;2800377;-49
2023/03/31 09:08:11;;;;;;;;;11.60;10.00;;;;;18.05;56.96;98972.84;6307255;20;2794063;-51
2023/03/31 09:11:34;;;;;;;;;11.00;11.00;;;;;18.17;57.87;98963.41;6283966;20;2792072;-52
2023/03/31 09:14:15;;;;;;;;;13.00;12.50;;;;;18.50;60.52;98950.81;6311256;20;2805504;-52
2023/03/31 09:17:27;;;;;;;;;15.50;14.50;;;;;19.04;60.64;98950.53;6278002;20;2483606;-53
2023/03/31 09:20:32;;;;;;;;;11.00;10.00;;;;;18.58;58.74;98947.28;6282224;20;2794028;-53
2023/03/31 09:23:41;;;;;;;;;10.50;9.50;;;;;19.23;53.26;98941.22;6283616;20;2776431;-49
2023/03/31 09:26:35;;;;;;;;;9.00;7.50;;;;;19.74;53.65;98933.75;6282945;20;2743025;-50
2023/03/31 09:29:36;;;;;;;;;11.00;10.00;;;;;18.19;58.46;98926.91;6282005;20;2784655;-49
2023/03/31 09:32:16;;;;;;;;;16.00;15.00;;;;;19.15;58.74;98917.56;6311334;20;3549225;-52
2023/03/31 09:34:51;;;;;;;;;17.00;14.00;;;;;18.60;60.03;98908.03;6283062;20;2819056;-48
2023/03/31 09:37:26;;;;;;;;;11.13;10.88;;;;;19.07;57.69;98918.41;6338654;20;3523279;-51
2023/03/31 09:39:53;;;;;;;;;12.00;11.00;;;;;18.62;55.90;98911.47;6314897;20;2788869;-52
2023/03/31 09:42:21;;;;;;;;;6.00;5.00;;;;;18.92;59.77;98906.47;6283117;20;2745103;-51
2023/03/31 09:44:50;;;;;;;;;12.33;12.33;;;;;18.59;59.31;98898.19;6280593;20;3524351;-52
2023/03/31 09:47:39;;;;;;;;;11.00;10.00;;;;;19.06;58.30;98903.09;6277633;20;2785705;-48
2023/03/31 09:50:09;;;;;;;;;16.50;13.00;;;;;19.75;56.94;98902.78;6315218;20;2483616;-50
2023/03/31 09:52:47;;;;;;;;;14.33;13.00;;;;;19.64;57.25;98894.91;6286869;20;3519018;-50
2023/03/31 09:55:44;;;;;;;;;9.00;8.33;;;;;19.97;54.60;98892.19;6315119;20;2739955;-50
2023/03/31 09:58:16;;;;;;;;;10.33;9.00;;;;;19.44;55.25;98894.44;6319410;20;3482576;-48
2023/03/31 10:01:03;;;;;;;;;8.33;8.33;;;;;19.45;54.68;98891.53;6326025;20;2748617;-50
2023/03/31 10:03:36;;;;;;;;;10.67;9.33;;;;;19.37;55.09;98882.53;6317583;20;2772330;-49
2023/03/31 10:06:09;;;;;;;;;9.67;8.00;;;;;20.14;54.63;98880.19;6317717;20;2757699;-49
2023/03/31 10:08:48;;;;;;;;;7.80;6.80;;;;;20.67;53.23;98881.38;6343019;20;2737924;-50
2023/03/31 10:11:17;;;;;;;;;6.67;6.67;;;;;20.45;51.73;98876.66;6315356;20;2746120;-54
2023/03/31 10:14:14;;;;;;;;;6.00;5.00;;;;;20.15;52.99;98873.72;6341800;20;2745471;-55
2023/03/31 10:16:55;;;;;;;;;5.20;5.20;;;;;19.70;51.90;98877.94;6343785;20;2741033;-50
2023/03/31 10:19:38;;;;;;;;;33.17;18.83;;;;;19.93;52.51;98865.28;6341684;20;3584626;-55
2023/03/31 10:22:22;;;;;;;;;5.00;5.00;;;;;19.72;50.60;98871.28;6287619;20;2747180;-48
2023/03/31 10:24:52;;;;;;;;;5.80;4.40;;;;;19.52;51.87;98859.88;6343811;20;2736890;-49
2023/03/31 10:27:29;;;;;;;;;7.00;4.00;;;;;19.84;52.82;98863.59;6317934;20;2747193;-50
2023/03/31 10:30:03;;;;;;;;;3.80;2.20;;;;;19.52;52.96;98854.44;6342521;20;2727370;-52
2023/03/31 10:32:39;;;;;;;;;7.67;5.00;;;;;19.56;51.26;98851.34;6312284;20;2748660;-53
2023/03/31 10:35:26;;;;;;;;;8.75;7.50;;;;;18.67;56.15;98844.84;6341669;20;2052437;-49
2023/03/31 10:38:11;;;;;;;;;7.29;5.86;;;;;18.05;57.96;98826.97;6359102;20;3456512;-51
2023/03/31 10:40:54;;;;;;;;;8.50;7.00;;;;;18.75;57.60;98834.03;6315232;20;2736812;-54
2023/03/31 10:43:57;;;;;;;;;5.60;5.60;;;;;18.75;55.98;98828.59;6310732;20;2735832;-51
2023/03/31 10:46:50;;;;;;;;;24.00;20.67;;;;;19.35;52.59;98820.06;6315459;20;3583600;-53
2023/03/31 10:49:21;;;;;;;;;50.00;40.67;;;;;19.33;51.09;98810.41;6283092;20;3613785;-49
2023/03/31 10:51:58;;;;;;;;;10.20;9.80;;;;;19.68;50.71;98810.00;6310027;20;2789906;-51
2023/03/31 10:54:26;;;;;;;;;5.50;5.00;;;;;20.01;50.69;98806.31;6287020;20;2733608;-53
2023/03/31 10:57:04;;;;;;;;;17.50;16.50;;;;;19.93;51.88;98807.19;6289670;20;2483704;-49
2023/03/31 10:59:57;;;;;;;;;5.00;5.00;;;;;19.35;49.98;98802.88;6291519;20;2632626;-55
2023/03/31 11:02:58;;;;;;;;;3.80;2.20;;;;;18.88;50.57;98807.19;6339113;20;2756533;-51
2023/03/31 11:05:50;;;;;;;;;7.20;4.00;;;;;19.08;51.55;98797.63;6311631;20;2756562;-50
2023/03/31 11:08:29;;;;;;;;;5.40;5.40;;;;;18.88;51.86;98799.03;6309524;20;2734681;-49
2023/03/31 11:11:52;;;;;;;;;3.60;3.00;;;;;20.06;50.42;98801.19;6307191;20;2748189;-49
2023/03/31 11:14:58;;;;;;;;;8.20;7.20;;;;;19.99;48.13;98801.06;6340010;20;2732606;-52
2023/03/31 11:18:12;;;;;;;;;6.00;5.00;;;;;19.42;50.89;98793.03;6341822;20;2733635;-49
2023/03/31 11:21:33;;;;;;;;;6.20;6.20;;;;;19.44;50.15;98780.09;6340608;20;2748274;-53
2023/03/31 11:24:47;;;;;;;;;6.00;6.00;;;;;19.43;51.29;98787.41;6315102;20;2734785;-52
2023/03/31 11:27:18;;;;;;;;;6.33;6.33;;;;;20.14;50.83;98780.22;6319337;20;2743046;-52
2023/03/31 11:30:51;;;;;;;;;5.00;5.00;;;;;19.66;50.75;98778.50;6341882;20;2734661;-52
2023/03/31 11:33:59;;;;;;;;;8.00;8.00;;;;;19.33;51.78;98775.84;6338360;20;2746146;-54
2023/03/31 11:36:56;;;;;;;;;5.80;5.80;;;;;18.94;53.47;98767.56;6337584;20;2745076;-54
2023/03/31 11:39:53;;;;;;;;;7.00;7.00;;;;;19.78;52.95;98762.66;6338146;20;2730514;-52
2023/03/31 11:42:58;;;;;;;;;7.00;4.00;;;;;20.13;51.88;98758.56;6319721;20;2739883;-51
2023/03/31 11:45:42;;;;;;;;;7.20;5.80;;;;;20.05;50.42;98745.00;6313036;20;2732655;-57
2023/03/31 15:54:40;;;;;;;;;7.40;7.00;;;;;17.47;59.07;98339.19;6300958;20;2746160;-71
2023/03/31 15:57:18;;;;;;;;;8.00;8.00;;;;;17.44;58.91;98334.09;6303421;20;2753629;-70
2023/03/31 15:59:50;;;;;;;;;6.00;6.00;;;;;17.31;59.10;98318.34;6267341;20;2734630;-70